ADDS METAR Data INFO
IDs: Format: Raw Decoded Include TAF

Data at: 1044 UTC 19 Oct 2017

KDVP 191036Z AUTO 18005KT 10SM CLR 04/M03 A3005 RMK AO2 T00431035
KDVP 191016Z AUTO 19005KT 10SM CLR 06/M06 A3004 RMK AO2 T00641059
KDVP 191004Z AUTO 19006KT 10SM CLR 04/M03 A3004 RMK AO2 T00381034
KDVP 190936Z AUTO 16005KT 10SM CLR 03/M01 A3004 RMK AO2 T00311012
KDVP 190916Z AUTO 17004KT 10SM CLR 03/M02 A3004 RMK AO2 T00301017
KDVP 190856Z AUTO 17003KT 10SM CLR 05/M03 A3005 RMK AO2 T00491031
KDVP 190836Z AUTO 15003KT 10SM CLR 05/M03 A3005 RMK AO2 T00461030
KDVP 190816Z AUTO 00000KT 10SM CLR 04/M03 A3006 RMK AO2 T00411027
KDVP 190756Z AUTO 00000KT 10SM CLR 05/M02 A3006 RMK AO2 T00451025
KDVP 190736Z AUTO 20004KT 10SM CLR 05/M03 A3006 RMK AO2 T00481028
KDVP 190716Z AUTO 00000KT 10SM CLR 05/M17 A3006 RMK AO2 T00471166
KDVP 190656Z AUTO 18005KT 10SM CLR 05/M13 A3006 RMK AO2 T00481126
KDVP 190636Z AUTO 16004KT 10SM CLR 04/M09 A3006 RMK AO2 T00381095
KDVP 190616Z AUTO 00000KT 10SM CLR 04/M05 A3006 RMK AO2 T00431054
KDVP 190556Z AUTO 27004KT 10SM CLR 05/M01 A3006 RMK AO2 T00451009 10120 20045
KDVP 190536Z AUTO 28004KT 10SM CLR 05/00 A3007 RMK AO2 T00490002
KDVP 190516Z AUTO 28004KT 10SM CLR 05/01 A3007 RMK AO2 T00470005
KDVP 190456Z AUTO 30004KT 10SM CLR 05/00 A3007 RMK AO2 T00500003
KDVP 190436Z AUTO 30004KT 10SM CLR 07/00 A3007 RMK AO2 T00651001
KDVP 190416Z AUTO 30004KT 10SM CLR 06/00 A3006 RMK AO2 T00560001
KDVP 190356Z AUTO 27004KT 10SM CLR 06/00 A3006 RMK AO2 T00560004
KDVP 190336Z AUTO 28004KT 10SM CLR 06/00 A3006 RMK AO2 T00590003
KDVP 190316Z AUTO 30005KT 10SM CLR 06/01 A3007 RMK AO2 T00570005
KDVP 190256Z AUTO 28003KT 10SM CLR 07/M02 A3006 RMK AO2 T00731017
KDVP 190236Z AUTO 29004KT 10SM CLR 07/M03 A3006 RMK AO2 T00701027
KDVP 190216Z AUTO 27004KT 10SM CLR 07/M06 A3005 RMK AO2 T00721060
KDVP 190156Z AUTO 27003KT 10SM CLR 07/M01 A3005 RMK AO2 T00721013
KDVP 190136Z AUTO 27003KT 10SM CLR 08/00 A3005 RMK AO2 T00800003
KDVP 190116Z AUTO 28003KT 10SM CLR 09/M07 A3005 RMK AO2 T00871068
KDVP 190056Z AUTO 28003KT 10SM CLR 11/M12 A3004 RMK AO2 T01051123
KDVP 190036Z AUTO 29004KT 10SM CLR 11/M28 A3004 RMK AO2 T01121284
KDVP 190016Z AUTO 29004KT 10SM CLR 12/M05 A3004 RMK AO2 T01161048
KDVP 182356Z AUTO 30005KT 10SM CLR 12/00 A3004 RMK AO2 T01210000
KDVP 182336Z AUTO 27003KT 10SM CLR 15/M09 A3002 RMK AO2 T01451091
KDVP 182316Z AUTO 00000KT 10SM CLR 17/M21 A3001 RMK AO2 T01661212
KDVP 182256Z AUTO 36003KT 10SM CLR 17/M31 A3001 RMK AO2 T01711309
KDVP 182236Z AUTO 36008KT 10SM CLR A3000 RMK AO2
KDVP 182216Z AUTO 35010G14KT 10SM CLR A3000 RMK AO2
KDVP 182156Z AUTO 33011KT 10SM CLR A2999 RMK AO2
KDVP 182136Z AUTO 34012KT 10SM CLR A2998 RMK AO2
KDVP 182116Z AUTO 33009KT 10SM CLR A2997 RMK AO2
KDVP 182056Z AUTO 33013KT 10SM CLR A2996 RMK AO2
KDVP 182036Z AUTO 35012G17KT 10SM CLR A2996 RMK AO2
KDVP 182016Z AUTO 34011KT 10SM CLR 21/M27 A2995 RMK AO2 T02071271
KDVP 181956Z AUTO 35011KT 10SM CLR 21/M16 A2995 RMK AO2 T02071165
KDVP 181936Z AUTO 01010G19KT 10SM CLR 20/M12 A2994 RMK AO2 T02041116
KDVP 181916Z AUTO 36014KT 10SM CLR 21/00 A2993 RMK AO2 T02050002
KDVP 181856Z AUTO 36014G22KT 10SM CLR 21/01 A2993 RMK AO2 T02050005
KDVP 181836Z AUTO 36016G20KT 10SM CLR 20/00 A2992 RMK AO2 T02041001
KDVP 181816Z AUTO 35020G25KT 10SM CLR 20/01 A2992 RMK AO2 T02010008
KDVP 181756Z AUTO 35020G27KT 10SM CLR 20/01 A2992 RMK AO2 T01980010 10198 20101
KDVP 181736Z AUTO 35016G20KT 10SM CLR 20/M08 A2992 RMK AO2 T01971084
KDVP 181716Z AUTO 34017G25KT 10SM CLR 20/M13 A2992 RMK AO2 T01961129
KDVP 181656Z AUTO 33010KT 10SM CLR 18/05 A2991 RMK AO2 T01790053
KDVP 181636Z AUTO 32008KT 10SM CLR 17/06 A2990 RMK AO2 T01690061
KDVP 181616Z AUTO 27010KT 10SM CLR 15/07 A2990 RMK AO2 T01470065
KDVP 181556Z AUTO 25007G15KT 10SM CLR 13/06 A2989 RMK AO2 T01300064
KDVP 181536Z AUTO 26007KT 10SM CLR 13/06 A2988 RMK AO2 T01320058
KDVP 181516Z AUTO 22007G15KT 10SM CLR 13/06 A2985 RMK AO2 T01300060
KDVP 181456Z AUTO 25012G16KT 10SM CLR 14/06 A2985 RMK AO2 T01350060
KDVP 181436Z AUTO 21013G17KT 10SM CLR 13/06 A2980 RMK AO2 T01330056
KDVP 181416Z AUTO 20014G19KT 10SM CLR 13/06 A2979 RMK AO2 T01340056
KDVP 181356Z AUTO 20016G20KT 10SM CLR 13/06 A2979 RMK AO2 T01260056
KDVP 181336Z AUTO 20011G17KT 10SM CLR 12/06 A2979 RMK AO2 T01160055
KDVP 181316Z AUTO 21008KT 10SM CLR 11/04 A2979 RMK AO2 T01070044
KDVP 181256Z AUTO 20013KT 10SM CLR 11/05 A2978 RMK AO2 T01070050
KDVP 181236Z AUTO 19009KT 10SM CLR 11/05 A2978 RMK AO2 T01060050
KDVP 181216Z AUTO 18008KT 10SM CLR 10/05 A2978 RMK AO2 T01010052
KDVP 181156Z AUTO 17008KT 10SM CLR 10/03 A2980 RMK AO2 T01010031 10135 20100
KDVP 181136Z AUTO 17007KT 10SM CLR 10/04 A2981 RMK AO2 T01030038
KDVP 181116Z AUTO 17008KT 10SM CLR 11/04 A2981 RMK AO2 T01060039
KDVP 181056Z AUTO 18007KT 10SM CLR 11/06 A2981 RMK AO2 T01080064
KDVP 181036Z AUTO 18007KT 10SM CLR 11/07 A2982 RMK AO2 T01120066
KDVP 181016Z AUTO 19008KT 10SM CLR 12/07 A2982 RMK AO2 T01150067
KDVP 180956Z AUTO 19009KT 10SM CLR 12/07 A2983 RMK AO2 T01150065
KDVP 180936Z AUTO 19009KT 10SM CLR 12/06 A2983 RMK AO2 T01180061
KDVP 180916Z AUTO 20012G16KT 10SM CLR 12/02 A2983 RMK AO2 T01220020
KDVP 180856Z AUTO 19009KT 10SM CLR 12/02 A2983 RMK AO2 T01220023
KDVP 180836Z AUTO 19011KT 10SM CLR 13/02 A2984 RMK AO2 T01270016
KDVP 180816Z AUTO 20011KT 10SM CLR 13/01 A2985 RMK AO2 T01270009
KDVP 180756Z AUTO 20012KT 10SM CLR 13/02 A2985 RMK AO2 T01250024
KDVP 180736Z AUTO 20012KT 10SM CLR 13/01 A2986 RMK AO2 T01270011
KDVP 180716Z AUTO 20013KT 10SM CLR 13/04 A2987 RMK AO2 T01270042
KDVP 180656Z AUTO 19011KT 10SM CLR 13/04 A2987 RMK AO2 T01260035
KDVP 180636Z AUTO 19010KT 10SM CLR 13/04 A2988 RMK AO2 T01280042
KDVP 180616Z AUTO 19010KT 10SM CLR 13/05 A2988 RMK AO2 T01310050
KDVP 180556Z AUTO 19008KT 10SM CLR 14/05 A2989 RMK AO2 T01360051 10174 20135
KDVP 180536Z AUTO 19010G15KT 10SM CLR 14/05 A2990 RMK AO2 T01360052
KDVP 180516Z AUTO 19011G19KT 10SM CLR 14/05 A2991 RMK AO2 T01370052
KDVP 180456Z AUTO 20011G17KT 10SM CLR 14/06 A2992 RMK AO2 T01360058
KDVP 180436Z AUTO 19011KT 10SM CLR 14/06 A2992 RMK AO2 T01350057
KDVP 180416Z AUTO 19011G16KT 10SM CLR 14/05 A2992 RMK AO2 T01360047
KDVP 180356Z AUTO 19012KT 10SM CLR 14/03 A2993 RMK AO2 T01370028
KDVP 180336Z AUTO 19010G15KT 10SM CLR 14/M18 A2993 RMK AO2 T01391176
KDVP 180316Z AUTO 19010KT 10SM CLR 15/M30 A2993 RMK AO2 T01451300
KDVP 180256Z AUTO 19012G17KT 10SM CLR 15/M32 A2993 RMK AO2 T01501319
KDVP 180236Z AUTO 19010KT 10SM CLR 15/M33 A2993 RMK AO2 T01481335
KDVP 180216Z AUTO 20012KT 10SM CLR 16/M34 A2992 RMK AO2 T01551340
KDVP 180156Z AUTO 19008KT 10SM CLR 15/M33 A2992 RMK AO2 T01461333
KDVP 180136Z AUTO 19008KT 10SM CLR 15/M33 A2993 RMK AO2 T01521333
KDVP 180116Z AUTO 19004KT 10SM CLR 14/M33 A2993 RMK AO2 T01431332
KDVP 180056Z AUTO 19006KT 10SM CLR 15/M34 A2994 RMK AO2 T01501341
KDVP 180036Z AUTO 20005KT 10SM CLR 16/M35 A2994 RMK AO2 T01581346
KDVP 180016Z AUTO 19004KT 7SM CLR 16/M33 A2994 RMK AO2 T01601329
KDVP 172356Z AUTO 19007KT 10SM CLR A2994 RMK AO2
KDVP 172336Z AUTO 19006KT 10SM CLR A2994 RMK AO2
KDVP 172316Z AUTO 19005KT 10SM CLR A2994 RMK AO2
KDVP 172256Z AUTO 20005KT 10SM CLR A2994 RMK AO2